createdAt,value
2022-08-06T00:00:06.392Z,61.90
2022-08-06T00:00:56.614Z,61.00
2022-08-06T00:01:55.685Z,61.30
2022-08-06T00:02:55.604Z,61.19
2022-08-06T00:03:55.580Z,61.00
2022-08-06T00:04:55.573Z,60.69
2022-08-06T00:05:55.565Z,61.83
2022-08-06T00:06:55.571Z,61.40
2022-08-06T00:07:55.549Z,61.52
2022-08-06T00:08:55.698Z,61.13
2022-08-06T00:09:57.068Z,61.13
2022-08-06T00:10:56.504Z,60.69
2022-08-06T00:11:59.232Z,61.10
2022-08-06T00:12:55.500Z,60.80
2022-08-06T00:13:55.472Z,60.80
2022-08-06T00:14:55.463Z,60.49
2022-08-06T00:16:10.726Z,60.60
2022-08-06T00:16:56.450Z,60.69
2022-08-06T00:17:55.442Z,61.00
2022-08-06T00:18:55.433Z,60.69
2022-08-06T00:19:58.531Z,60.49
2022-08-06T00:20:56.396Z,59.99
2022-08-06T00:21:55.405Z,59.99
2022-08-06T00:22:55.379Z,61.19
2022-08-06T00:23:55.734Z,60.80
2022-08-06T00:24:55.355Z,60.19
2022-08-06T00:25:55.342Z,60.29
2022-08-06T00:27:05.536Z,59.79
2022-08-06T00:27:56.335Z,60.62
2022-08-06T00:28:55.315Z,60.93
2022-08-06T00:29:55.475Z,60.93
2022-08-06T00:30:55.293Z,60.82
2022-08-06T00:31:55.275Z,60.82
2022-08-06T00:32:55.278Z,60.32
2022-08-06T00:33:57.428Z,60.32
2022-08-06T00:34:55.251Z,60.22
2022-08-06T00:35:55.233Z,60.32
2022-08-06T00:36:55.231Z,60.32
2022-08-06T00:37:58.052Z,60.32
2022-08-06T00:38:55.250Z,60.82
2022-08-06T00:39:55.193Z,60.96
2022-08-06T00:40:58.891Z,61.76
2022-08-06T00:41:55.168Z,61.79
2022-08-06T00:42:55.177Z,62.79
2022-08-06T00:43:55.147Z,62.39
2022-08-06T00:44:55.139Z,62.39
2022-08-06T00:45:55.653Z,62.08
2022-08-06T00:46:55.115Z,61.79
2022-08-06T00:48:02.045Z,61.88
2022-08-06T00:48:56.258Z,62.12
2022-08-06T00:49:55.081Z,62.32
2022-08-06T00:50:55.073Z,62.42
2022-08-06T00:51:55.060Z,61.61
2022-08-06T00:52:55.064Z,61.91
2022-08-06T00:53:58.089Z,61.91
2022-08-06T00:54:55.031Z,61.61
2022-08-06T00:55:59.550Z,61.71
2022-08-06T00:56:56.003Z,61.82
2022-08-06T00:57:55.005Z,61.38
2022-08-06T00:59:01.171Z,61.91
2022-08-06T00:59:55.975Z,61.82
2022-08-06T01:00:54.966Z,61.85
2022-08-06T01:01:54.963Z,61.61
2022-08-06T01:02:55.024Z,61.94
2022-08-06T01:03:54.930Z,61.65
2022-08-06T01:05:07.095Z,61.94
2022-08-06T01:06:41.760Z,62.07
2022-08-06T01:06:58.401Z,61.77
2022-08-06T01:07:54.898Z,62.07
2022-08-06T01:08:54.876Z,61.98
2022-08-06T01:09:58.419Z,62.27
2022-08-06T01:10:54.857Z,62.48
2022-08-06T01:11:59.236Z,62.48
2022-08-06T01:12:55.893Z,61.77
2022-08-06T01:14:03.140Z,62.27
2022-08-06T01:15:02.884Z,62.55
2022-08-06T01:16:08.938Z,61.65
2022-08-06T01:16:55.803Z,62.15
2022-08-06T01:17:56.184Z,62.05
2022-08-06T01:18:59.192Z,61.74
2022-08-06T01:21:57.772Z,62.58
2022-08-06T01:22:00.986Z,61.87
2022-08-06T01:22:28.305Z,62.18
2022-08-06T01:22:55.730Z,61.77
2022-08-06T01:23:54.710Z,61.98
2022-08-06T01:24:54.700Z,61.98
2022-08-06T01:25:54.690Z,61.98
2022-08-06T01:26:55.471Z,62.18
2022-08-06T01:27:54.681Z,62.27
2022-08-06T01:28:54.674Z,62.78
2022-08-06T01:29:54.647Z,62.58
2022-08-06T01:30:54.638Z,62.58
2022-08-06T01:31:54.625Z,62.78
2022-08-06T01:32:54.622Z,62.68
2022-08-06T01:33:54.715Z,62.58
2022-08-06T01:34:54.594Z,62.38
2022-08-06T01:35:55.614Z,62.48
2022-08-06T01:36:54.578Z,62.18
2022-08-06T01:37:54.586Z,61.87
2022-08-06T01:38:59.263Z,62.10
2022-08-06T01:40:02.635Z,62.71
2022-08-06T01:40:55.529Z,62.81
2022-08-06T01:41:58.581Z,63.21
2022-08-06T01:42:54.745Z,63.21
2022-08-06T01:44:06.670Z,63.62
2022-08-06T01:44:55.483Z,63.51
2022-08-06T01:45:55.666Z,63.31
2022-08-06T01:46:54.463Z,63.42
2022-08-06T01:47:55.080Z,63.31
2022-08-06T01:48:54.441Z,63.31
2022-08-06T01:50:00.927Z,63.51
2022-08-06T01:50:55.431Z,63.42
2022-08-06T01:52:14.843Z,63.51
2022-08-06T01:52:56.643Z,63.31
2022-08-06T01:54:07.569Z,63.42
2022-08-06T01:54:55.380Z,63.31
2022-08-06T01:55:58.779Z,63.31
2022-08-06T01:56:55.994Z,63.21
2022-08-06T01:58:18.675Z,63.42
2022-08-06T01:58:55.329Z,63.21
2022-08-06T01:59:56.352Z,63.31
2022-08-06T02:00:54.311Z,63.31
2022-08-06T02:01:55.016Z,63.31
2022-08-06T02:02:54.298Z,63.48
2022-08-06T02:03:58.749Z,63.48
2022-08-06T02:04:55.316Z,63.48
2022-08-06T02:05:54.441Z,63.39
2022-08-06T02:06:54.252Z,63.39
2022-08-06T02:08:38.654Z,63.18
2022-08-06T02:08:55.233Z,63.08
2022-08-06T02:09:54.244Z,63.31
2022-08-06T02:10:54.223Z,62.91
2022-08-06T02:12:03.809Z,63.62
2022-08-06T02:12:55.190Z,63.51
2022-08-06T02:13:55.165Z,63.71
2022-08-06T02:14:54.210Z,63.71
2022-08-06T02:15:58.620Z,63.95
2022-08-06T02:16:55.133Z,64.52
2022-08-06T02:18:06.320Z,64.02
2022-08-06T02:18:55.115Z,64.25
2022-08-06T02:20:05.062Z,64.02
2022-08-06T02:20:55.089Z,64.22
2022-08-06T02:21:57.555Z,64.12
2022-08-06T02:22:54.081Z,64.12
2022-08-06T02:23:54.059Z,64.52
2022-08-06T02:24:54.053Z,64.52
2022-08-06T02:25:54.086Z,63.92
2022-08-06T02:26:54.027Z,64.25
2022-08-06T02:27:58.000Z,64.55
2022-08-06T02:28:55.005Z,64.25
2022-08-06T02:30:06.261Z,64.55
2022-08-06T02:30:55.006Z,64.62
2022-08-06T02:31:53.970Z,64.75
2022-08-06T02:32:53.971Z,64.75
2022-08-06T02:34:03.543Z,64.52
2022-08-06T02:34:54.940Z,64.55
2022-08-06T02:35:53.939Z,64.45
2022-08-06T02:36:54.924Z,64.52
2022-08-06T02:38:01.801Z,65.16
2022-08-06T02:38:55.113Z,65.06
2022-08-06T02:39:53.948Z,65.06
2022-08-06T02:40:53.878Z,65.16
2022-08-06T02:41:55.668Z,65.26
2022-08-06T02:42:53.862Z,65.26
2022-08-06T02:43:53.843Z,65.76
2022-08-06T02:44:53.835Z,65.16
2022-08-06T02:45:58.240Z,65.26
2022-08-06T02:46:56.447Z,65.66
2022-08-06T02:48:01.599Z,65.46
2022-08-06T02:48:54.789Z,65.16
2022-08-06T02:49:57.625Z,64.55
2022-08-06T02:50:53.769Z,64.86
2022-08-06T02:52:11.662Z,64.58
2022-08-06T02:52:57.577Z,64.69
2022-08-06T02:54:04.587Z,64.69
2022-08-06T02:54:54.722Z,64.58
2022-08-06T02:55:53.719Z,64.38
2022-08-06T02:56:53.701Z,64.69
2022-08-06T02:57:53.703Z,64.38
2022-08-06T02:58:58.129Z,64.15
2022-08-06T02:59:55.585Z,64.45
2022-08-06T03:00:53.757Z,64.35
2022-08-06T03:01:53.709Z,64.05
2022-08-06T03:02:53.647Z,64.25
2022-08-06T03:03:54.725Z,64.28
2022-08-06T03:04:57.205Z,64.28
2022-08-06T03:05:55.035Z,64.38
2022-08-06T03:06:53.595Z,64.48
2022-08-06T03:07:53.598Z,64.38
2022-08-06T03:08:53.572Z,64.48
2022-08-06T03:09:53.565Z,64.48
2022-08-06T03:10:53.551Z,64.48
2022-08-06T03:11:53.541Z,64.07
2022-08-06T03:12:53.542Z,63.98
2022-08-06T03:13:53.519Z,64.07
2022-08-06T03:15:03.574Z,64.28
2022-08-06T03:15:59.664Z,64.28
2022-08-06T03:16:57.590Z,64.07
2022-08-06T03:17:53.487Z,64.07
2022-08-06T03:19:53.679Z,64.07
2022-08-06T03:19:58.970Z,63.98
2022-08-06T03:20:54.450Z,64.28
2022-08-06T03:21:56.990Z,64.18
2022-08-06T03:22:53.501Z,64.38
2022-08-06T03:23:53.415Z,64.18
2022-08-06T03:24:53.397Z,64.28
2022-08-06T03:25:53.395Z,64.41
2022-08-06T03:26:53.377Z,64.28
2022-08-06T03:28:02.164Z,64.58
2022-08-06T03:28:54.354Z,64.41
2022-08-06T03:29:58.606Z,64.28
2022-08-06T03:30:55.617Z,64.38
2022-08-06T03:31:58.709Z,64.07
2022-08-06T03:32:55.091Z,64.48
2022-08-06T03:33:54.579Z,64.28
2022-08-06T03:34:53.294Z,64.51
2022-08-06T03:35:54.140Z,64.28
2022-08-06T03:36:53.270Z,64.48
2022-08-06T03:38:00.057Z,64.38
2022-08-06T03:38:54.545Z,64.28
2022-08-06T03:39:53.696Z,64.18
2022-08-06T03:40:53.226Z,64.58
2022-08-06T03:42:06.730Z,64.28
2022-08-06T03:42:54.222Z,64.31
2022-08-06T03:44:02.783Z,64.72
2022-08-06T03:44:54.185Z,65.42
2022-08-06T03:45:55.479Z,65.42
2022-08-06T03:46:53.166Z,65.32
2022-08-06T03:48:07.061Z,65.32
2022-08-06T03:48:54.141Z,65.32
2022-08-06T03:49:53.135Z,65.32
2022-08-06T03:50:53.120Z,65.12
2022-08-06T03:51:54.631Z,65.12
2022-08-06T03:52:53.108Z,65.42
2022-08-06T03:53:53.087Z,65.45
2022-08-06T03:54:53.076Z,65.55
2022-08-06T03:55:53.066Z,65.52
2022-08-06T03:56:53.054Z,65.42
2022-08-06T03:57:53.054Z,65.42
2022-08-06T03:58:53.085Z,65.32
2022-08-06T03:59:58.753Z,64.72
2022-08-06T04:00:55.454Z,64.69
2022-08-06T04:01:53.106Z,64.72
2022-08-06T04:02:53.419Z,64.58
2022-08-06T04:03:54.385Z,64.41
2022-08-06T04:04:52.968Z,64.38
2022-08-06T04:05:53.055Z,64.28
2022-08-06T04:06:52.983Z,64.41
2022-08-06T04:07:55.584Z,64.58
2022-08-06T04:08:52.923Z,64.38
2022-08-06T04:09:59.196Z,64.51
2022-08-06T04:10:57.166Z,64.51
2022-08-06T04:12:37.665Z,64.48
2022-08-06T04:13:08.542Z,64.58
2022-08-06T04:14:06.249Z,64.28
2022-08-06T04:14:53.874Z,64.48
2022-08-06T04:15:52.892Z,64.07
2022-08-06T04:16:52.836Z,63.98
2022-08-06T04:17:52.838Z,63.98
2022-08-06T04:18:52.813Z,64.07
2022-08-06T04:19:52.806Z,63.98
2022-08-06T04:20:53.137Z,63.98
2022-08-06T04:23:00.069Z,63.87
2022-08-06T04:23:00.135Z,63.95
2022-08-06T04:23:53.764Z,64.05
2022-08-06T04:24:54.726Z,63.75
2022-08-06T04:25:52.767Z,63.87
2022-08-06T04:26:52.731Z,64.18
2022-08-06T04:27:53.958Z,64.28
2022-08-06T04:28:58.075Z,64.48
2022-08-06T04:29:59.080Z,64.07
2022-08-06T04:30:53.727Z,64.78
2022-08-06T04:32:11.135Z,64.58
2022-08-06T04:33:00.842Z,64.48
2022-08-06T04:33:53.652Z,64.69
2022-08-06T04:36:03.103Z,64.78
2022-08-06T04:36:05.252Z,64.78
2022-08-06T04:36:53.970Z,64.48
2022-08-06T04:37:54.144Z,64.38
2022-08-06T04:38:52.598Z,64.28
2022-08-06T04:39:52.737Z,64.48
2022-08-06T04:40:53.514Z,64.15
2022-08-06T04:41:56.982Z,64.05
2022-08-06T04:42:53.568Z,63.95
2022-08-06T04:43:55.408Z,63.95
2022-08-06T04:44:59.397Z,63.54
2022-08-06T04:46:18.025Z,63.75
2022-08-06T04:46:53.517Z,63.65
2022-08-06T04:47:52.509Z,63.54
2022-08-06T04:48:56.944Z,63.54
2022-08-06T04:50:01.345Z,63.42
2022-08-06T04:50:54.424Z,63.34
2022-08-06T04:52:46.039Z,63.31
2022-08-06T04:52:53.955Z,63.62
2022-08-06T04:53:56.845Z,63.04
2022-08-06T04:54:53.436Z,63.01
2022-08-06T04:56:03.774Z,62.91
2022-08-06T04:56:53.401Z,63.21
2022-08-06T04:57:56.829Z,63.11
2022-08-06T04:58:53.430Z,63.31
2022-08-06T04:59:52.371Z,63.51
2022-08-06T05:01:03.195Z,63.11
2022-08-06T05:02:00.917Z,63.42
2022-08-06T05:02:53.340Z,63.18
2022-08-06T05:04:06.620Z,63.18
2022-08-06T05:04:53.314Z,63.39
2022-08-06T05:05:52.344Z,63.08
2022-08-06T05:06:52.355Z,62.85
2022-08-06T05:07:55.964Z,62.88
2022-08-06T05:08:53.283Z,62.78
2022-08-06T05:09:53.891Z,62.78
2022-08-06T05:10:52.255Z,62.98
2022-08-06T05:11:58.380Z,62.98
2022-08-06T05:12:53.297Z,62.98
2022-08-06T05:13:52.232Z,63.18
2022-08-06T05:14:53.393Z,62.88
2022-08-06T05:15:52.200Z,63.08
2022-08-06T05:16:52.670Z,63.18
2022-08-06T05:17:52.177Z,62.68
2022-08-06T05:19:20.479Z,62.98
2022-08-06T05:19:53.151Z,63.18
2022-08-06T05:20:52.142Z,63.28
2022-08-06T05:22:11.097Z,63.18
2022-08-06T05:22:54.848Z,63.42
2022-08-06T05:23:53.308Z,63.59
2022-08-06T05:25:03.131Z,63.59
2022-08-06T05:25:54.366Z,63.51
2022-08-06T05:26:52.074Z,63.42
2022-08-06T05:28:03.954Z,63.31
2022-08-06T05:28:53.064Z,63.11
2022-08-06T05:29:54.710Z,63.51
2022-08-06T05:30:52.033Z,63.95
2022-08-06T05:31:52.022Z,64.25
2022-08-06T05:32:53.790Z,64.15
2022-08-06T05:33:52.011Z,64.65
2022-08-06T05:34:52.958Z,64.86
2022-08-06T05:36:01.621Z,64.45
2022-08-06T05:36:52.963Z,63.85
2022-08-06T05:38:01.929Z,64.15
2022-08-06T05:38:59.221Z,64.25
2022-08-06T05:39:57.986Z,63.92
2022-08-06T05:40:57.721Z,64.05
2022-08-06T05:41:52.913Z,63.42
2022-08-06T05:42:57.574Z,63.62
2022-08-06T05:43:58.143Z,63.11
2022-08-06T05:44:53.281Z,63.18
2022-08-06T05:45:51.880Z,63.39
2022-08-06T05:46:51.855Z,63.48
2022-08-06T05:47:55.755Z,63.08
2022-08-06T05:48:52.196Z,62.85
2022-08-06T05:49:55.997Z,62.24
2022-08-06T05:50:52.838Z,61.94
2022-08-06T05:51:51.803Z,62.42
2022-08-06T05:52:51.793Z,61.91
2022-08-06T05:54:03.235Z,61.91
2022-08-06T05:54:52.770Z,61.41
2022-08-06T05:55:51.802Z,60.88
2022-08-06T05:56:53.354Z,60.98
2022-08-06T05:57:53.823Z,61.29
2022-08-06T05:58:54.803Z,60.98
2022-08-06T05:59:57.703Z,61.18
2022-08-06T06:00:55.334Z,60.98
2022-08-06T06:01:51.697Z,60.35
2022-08-06T06:02:51.682Z,60.65
2022-08-06T06:03:51.767Z,60.18
2022-08-06T06:06:03.298Z,59.85
2022-08-06T06:06:05.114Z,60.05
2022-08-06T06:06:54.743Z,60.05
2022-08-06T06:08:10.180Z,60.25
2022-08-06T06:08:55.406Z,60.35
2022-08-06T06:10:03.822Z,60.32
2022-08-06T06:10:53.333Z,60.12
2022-08-06T06:12:01.486Z,59.82
2022-08-06T06:12:52.766Z,60.02
2022-08-06T06:13:58.529Z,59.82
2022-08-06T06:14:52.552Z,59.92
2022-08-06T06:16:01.108Z,59.62
2022-08-06T06:16:52.534Z,59.79
2022-08-06T06:17:51.524Z,59.59
2022-08-06T06:18:56.033Z,59.39
2022-08-06T06:19:52.347Z,58.59
2022-08-06T06:20:58.211Z,59.19
2022-08-06T06:21:52.476Z,58.29
2022-08-06T06:22:51.475Z,58.18
2022-08-06T06:23:54.988Z,58.18
2022-08-06T06:24:51.444Z,58.66
2022-08-06T06:25:53.437Z,58.39
2022-08-06T06:26:51.427Z,58.16
2022-08-06T06:27:51.414Z,57.96
2022-08-06T06:28:51.417Z,58.06
2022-08-06T06:30:06.875Z,57.96
2022-08-06T06:31:02.251Z,58.16
2022-08-06T06:32:07.597Z,57.53
2022-08-06T06:32:52.359Z,58.33
2022-08-06T06:33:52.163Z,57.53
2022-08-06T06:34:51.578Z,57.73
2022-08-06T06:35:55.381Z,57.23
2022-08-06T06:36:55.080Z,57.53
2022-08-06T06:37:52.304Z,57.03
2022-08-06T06:38:51.806Z,57.60
2022-08-06T06:39:52.317Z,57.13
2022-08-06T06:40:53.383Z,57.20
2022-08-06T06:41:53.399Z,56.60
2022-08-06T06:42:51.253Z,56.00
2022-08-06T06:43:53.913Z,56.00
2022-08-06T06:45:08.458Z,56.30
2022-08-06T06:46:07.355Z,55.57
2022-08-06T06:46:52.218Z,55.57
2022-08-06T06:47:53.180Z,55.65
2022-08-06T06:48:52.201Z,54.94
2022-08-06T06:50:01.068Z,54.85
2022-08-06T06:50:52.163Z,54.14
2022-08-06T06:51:58.083Z,54.62
2022-08-06T06:52:52.143Z,53.72
2022-08-06T06:54:07.270Z,53.59
2022-08-06T06:55:00.079Z,53.37
2022-08-06T06:55:57.985Z,53.04
2022-08-06T06:56:52.100Z,52.42
2022-08-06T06:57:51.754Z,51.59
2022-08-06T06:58:51.091Z,51.29
2022-08-06T07:00:04.019Z,50.87
2022-08-06T07:01:11.833Z,51.17
2022-08-06T07:01:55.176Z,49.83
2022-08-06T07:02:51.156Z,49.40
2022-08-06T07:03:51.046Z,49.18
2022-08-06T07:04:51.021Z,48.66
2022-08-06T07:06:05.635Z,47.22
2022-08-06T07:06:57.337Z,47.20
2022-08-06T07:07:51.988Z,46.88
2022-08-06T07:08:50.983Z,46.38
2022-08-06T07:09:53.544Z,46.66
2022-08-06T07:10:51.952Z,45.94
2022-08-06T07:12:02.729Z,45.15
2022-08-06T07:12:53.611Z,44.65
2022-08-06T07:13:51.490Z,45.47
2022-08-06T07:14:58.835Z,44.65
2022-08-06T07:15:53.807Z,45.47
2022-08-06T07:16:52.216Z,45.37
2022-08-06T07:17:50.875Z,44.97
2022-08-06T07:18:53.299Z,45.27
2022-08-06T07:19:51.249Z,45.47
2022-08-06T07:20:50.881Z,45.09
2022-08-06T07:21:52.496Z,46.38
2022-08-06T07:24:03.106Z,46.06
2022-08-06T07:24:07.399Z,46.56
2022-08-06T07:24:54.561Z,45.94
2022-08-06T07:25:54.511Z,45.45
2022-08-06T07:26:51.981Z,44.23
2022-08-06T07:27:54.743Z,44.71
2022-08-06T07:28:50.771Z,44.01
2022-08-06T07:30:00.306Z,44.21
2022-08-06T07:30:51.777Z,44.11
2022-08-06T07:31:50.726Z,44.71
2022-08-06T07:32:50.719Z,44.60
2022-08-06T07:34:00.860Z,44.81
2022-08-06T07:34:53.183Z,44.90
2022-08-06T07:35:50.685Z,44.78
2022-08-06T07:36:56.902Z,44.19
2022-08-06T07:37:51.664Z,44.19
2022-08-06T07:38:50.700Z,43.87
2022-08-06T07:39:50.785Z,44.29
2022-08-06T07:40:52.856Z,44.17
2022-08-06T07:42:11.134Z,44.05
2022-08-06T07:42:51.660Z,43.43
2022-08-06T07:43:51.579Z,42.43
2022-08-06T07:44:56.111Z,41.89
2022-08-06T07:45:55.587Z,41.28
2022-08-06T07:46:52.262Z,41.53
2022-08-06T07:47:54.799Z,40.72
2022-08-06T07:48:52.651Z,40.33
2022-08-06T07:50:00.980Z,39.92
2022-08-06T07:50:51.557Z,39.81
2022-08-06T07:51:50.518Z,39.62
2022-08-06T07:52:50.513Z,39.62
2022-08-06T07:53:56.857Z,39.94
2022-08-06T07:54:51.487Z,40.45
2022-08-06T07:55:50.475Z,39.94
2022-08-06T07:57:01.897Z,40.03
2022-08-06T07:57:55.377Z,40.33
2022-08-06T07:58:51.481Z,40.01
2022-08-06T07:59:55.234Z,39.64
2022-08-06T08:00:51.425Z,38.93
2022-08-06T08:01:50.492Z,39.11
2022-08-06T08:02:50.406Z,39.34
2022-08-06T08:03:58.596Z,39.34
2022-08-06T08:04:52.576Z,38.43
2022-08-06T08:06:00.121Z,39.64
2022-08-06T08:06:51.367Z,39.95
2022-08-06T08:07:53.573Z,40.23
2022-08-06T08:08:51.376Z,39.95
2022-08-06T08:10:01.587Z,40.25
2022-08-06T08:10:51.330Z,39.73
2022-08-06T08:12:17.011Z,39.03
2022-08-06T08:12:52.602Z,38.32
2022-08-06T08:13:50.300Z,38.30
2022-08-06T08:14:51.284Z,38.09
2022-08-06T08:15:50.271Z,37.77
2022-08-06T08:16:50.265Z,37.57
2022-08-06T08:17:56.411Z,37.36
2022-08-06T08:18:52.181Z,37.48
2022-08-06T08:19:50.232Z,38.34
2022-08-06T08:20:51.216Z,39.78
2022-08-06T08:21:50.211Z,39.70
2022-08-06T08:22:52.051Z,40.72
2022-08-06T08:23:50.203Z,40.96
2022-08-06T08:24:54.183Z,41.77
2022-08-06T08:25:50.175Z,43.00
2022-08-06T08:27:04.893Z,42.43
2022-08-06T08:27:51.151Z,42.23
2022-08-06T08:28:50.168Z,43.24
2022-08-06T08:29:51.149Z,43.64
2022-08-06T08:30:50.507Z,42.41
2022-08-06T08:31:59.879Z,42.36
2022-08-06T08:32:51.102Z,41.24
2022-08-06T08:33:50.089Z,41.30
2022-08-06T08:34:52.981Z,39.97
2022-08-06T08:36:00.879Z,39.46
2022-08-06T08:36:51.058Z,38.54
2022-08-06T08:37:50.668Z,38.02
2022-08-06T08:38:51.573Z,37.71
2022-08-06T08:39:50.287Z,36.92
2022-08-06T08:40:50.030Z,37.15
2022-08-06T08:41:50.409Z,36.94
2022-08-06T08:42:49.999Z,36.63
2022-08-06T08:44:00.835Z,35.82
2022-08-06T08:44:53.725Z,35.80
2022-08-06T08:45:50.159Z,35.02
2022-08-06T08:46:52.242Z,34.92
2022-08-06T08:47:53.928Z,34.41
2022-08-06T08:48:50.935Z,34.69
2022-08-06T08:49:49.943Z,34.67
2022-08-06T08:50:49.920Z,34.30
2022-08-06T08:51:49.912Z,33.98
2022-08-06T08:52:49.900Z,33.67
2022-08-06T08:53:49.886Z,33.67
2022-08-06T08:54:50.571Z,32.57
2022-08-06T08:57:06.270Z,32.56
2022-08-06T08:57:10.260Z,31.97
2022-08-06T08:58:40.974Z,32.28
2022-08-06T08:59:02.254Z,33.20
2022-08-06T08:59:59.415Z,32.72
2022-08-06T09:00:54.512Z,32.71
2022-08-06T09:01:53.137Z,32.41
2022-08-06T09:02:50.670Z,32.40
2022-08-06T09:03:51.462Z,32.79
2022-08-06T09:04:49.795Z,32.28
2022-08-06T09:05:49.771Z,32.48
2022-08-06T09:06:51.834Z,32.46
2022-08-06T09:08:01.138Z,32.15
2022-08-06T09:09:01.671Z,32.07
2022-08-06T09:10:01.157Z,32.46
2022-08-06T09:10:52.329Z,32.27
2022-08-06T09:12:05.270Z,33.15
2022-08-06T09:12:50.701Z,32.87
2022-08-06T09:13:51.677Z,33.77
2022-08-06T09:14:49.681Z,33.82
2022-08-06T09:15:51.516Z,34.05
2022-08-06T09:16:50.480Z,33.97
2022-08-06T09:18:25.206Z,33.75
2022-08-06T09:18:50.686Z,33.65
2022-08-06T09:19:49.631Z,34.15
2022-08-06T09:20:49.622Z,33.72
2022-08-06T09:21:51.072Z,33.61
2022-08-06T09:22:49.602Z,32.90
2022-08-06T09:23:58.449Z,32.61
2022-08-06T09:24:50.604Z,31.71
2022-08-06T09:25:51.235Z,30.91
2022-08-06T09:26:54.163Z,31.89
2022-08-06T09:27:50.658Z,31.50
2022-08-06T09:28:49.548Z,31.50
2022-08-06T09:30:04.314Z,31.68
2022-08-06T09:30:50.526Z,31.27
2022-08-06T09:31:49.517Z,31.58
2022-08-06T09:32:54.873Z,30.80
2022-08-06T09:34:31.720Z,29.91
2022-08-06T09:34:50.882Z,30.52
2022-08-06T09:35:49.476Z,31.30
2022-08-06T09:36:52.396Z,31.15
2022-08-06T09:37:54.309Z,32.45
2022-08-06T09:38:50.457Z,32.28
2022-08-06T09:40:05.190Z,33.08
2022-08-06T09:40:50.427Z,33.98
2022-08-06T09:41:49.418Z,34.23
2022-08-06T09:42:49.421Z,34.84
2022-08-06T09:44:03.592Z,34.72
2022-08-06T09:44:50.402Z,34.30
2022-08-06T09:45:49.380Z,33.89
2022-08-06T09:46:49.431Z,34.06
2022-08-06T09:47:58.385Z,33.77
2022-08-06T09:49:11.773Z,32.77
2022-08-06T09:50:00.774Z,32.48
2022-08-06T09:50:51.175Z,32.48
2022-08-06T09:51:51.242Z,32.26
2022-08-06T09:52:49.313Z,32.04
2022-08-06T09:54:03.070Z,31.74
2022-08-06T09:54:52.938Z,31.74
2022-08-06T09:55:49.289Z,32.34
2022-08-06T09:56:49.271Z,32.14
2022-08-06T09:57:49.267Z,30.63
2022-08-06T09:58:49.255Z,30.91
2022-08-06T09:59:50.325Z,30.11
2022-08-06T10:00:51.099Z,31.30
2022-08-06T10:01:50.435Z,31.40
2022-08-06T10:02:51.809Z,30.50
2022-08-06T10:04:03.172Z,30.50
2022-08-06T10:04:50.228Z,30.39
2022-08-06T10:05:50.263Z,30.01
2022-08-06T10:06:49.174Z,30.19
2022-08-06T10:07:53.122Z,30.29
2022-08-06T10:08:51.237Z,29.79
2022-08-06T10:09:49.158Z,28.99
2022-08-06T10:10:49.575Z,30.05
2022-08-06T10:11:49.628Z,28.78
2022-08-06T10:12:49.115Z,28.99
2022-08-06T10:13:49.120Z,29.27
2022-08-06T10:14:49.098Z,29.87
2022-08-06T10:16:01.423Z,29.77
2022-08-06T10:16:50.089Z,29.80
2022-08-06T10:17:52.037Z,30.00
2022-08-06T10:18:54.751Z,29.41
2022-08-06T10:19:52.311Z,29.80
2022-08-06T10:20:49.043Z,29.80
2022-08-06T10:21:49.034Z,29.59
2022-08-06T10:22:49.022Z,30.29
2022-08-06T10:23:51.567Z,30.30
2022-08-06T10:24:49.995Z,31.30
2022-08-06T10:25:48.991Z,31.92
2022-08-06T10:26:48.984Z,31.76
2022-08-06T10:27:49.080Z,32.36
2022-08-06T10:28:48.974Z,33.08
2022-08-06T10:29:48.957Z,33.69
2022-08-06T10:30:48.973Z,33.64
2022-08-06T10:31:53.124Z,35.25
2022-08-06T10:32:49.926Z,35.37
2022-08-06T10:33:56.290Z,36.08
2022-08-06T10:34:49.903Z,36.79
2022-08-06T10:35:49.237Z,37.20
2022-08-06T10:36:49.156Z,37.30
2022-08-06T10:37:50.043Z,37.12
2022-08-06T10:38:52.778Z,37.73
2022-08-06T10:40:07.210Z,37.13
2022-08-06T10:40:58.550Z,36.92
2022-08-06T10:42:00.718Z,37.13
2022-08-06T10:42:49.822Z,37.63
2022-08-06T10:43:48.822Z,37.26
2022-08-06T10:44:48.806Z,37.65
2022-08-06T10:45:50.799Z,37.95
2022-08-06T10:46:48.784Z,38.07
2022-08-06T10:49:01.403Z,37.98
2022-08-06T10:50:20.422Z,37.49
2022-08-06T10:50:29.613Z,37.88
2022-08-06T10:50:56.168Z,38.58
2022-08-06T10:51:56.043Z,38.90
2022-08-06T10:52:49.719Z,38.79
2022-08-06T10:54:01.206Z,38.70
2022-08-06T10:54:51.191Z,38.79
2022-08-06T10:55:48.687Z,39.01
2022-08-06T10:56:48.678Z,38.90
2022-08-06T10:57:48.666Z,38.22
2022-08-06T10:58:48.671Z,38.04
2022-08-06T10:59:53.568Z,37.94
2022-08-06T11:00:56.271Z,38.14
2022-08-06T11:01:51.164Z,37.64
2022-08-06T11:02:56.797Z,38.43
2022-08-06T11:03:49.654Z,39.03
2022-08-06T11:04:48.599Z,38.43
2022-08-06T11:05:54.065Z,39.33
2022-08-06T11:06:52.859Z,39.23
2022-08-06T11:08:10.162Z,39.43
2022-08-06T11:08:56.104Z,38.73
2022-08-06T11:09:59.751Z,39.53
2022-08-06T11:10:49.531Z,39.63
2022-08-06T11:11:50.783Z,39.43
2022-08-06T11:12:50.815Z,40.03
2022-08-06T11:13:52.428Z,40.03
2022-08-06T11:14:50.338Z,39.73
2022-08-06T11:15:48.481Z,39.54
2022-08-06T11:16:51.408Z,40.54
2022-08-06T11:17:48.474Z,40.74
2022-08-06T11:18:48.458Z,40.76
2022-08-06T11:19:56.593Z,39.67
2022-08-06T11:20:49.421Z,39.86
2022-08-06T11:21:58.642Z,39.27
2022-08-06T11:22:55.121Z,39.54
2022-08-06T11:23:59.003Z,39.75
2022-08-06T11:24:53.112Z,39.57
2022-08-06T11:25:48.394Z,39.57
2022-08-06T11:26:48.360Z,39.54
2022-08-06T11:27:50.387Z,40.16
2022-08-06T11:28:48.347Z,39.75
2022-08-06T11:30:03.477Z,39.45
2022-08-06T11:30:49.322Z,39.75
2022-08-06T11:31:57.011Z,39.76
2022-08-06T11:32:49.296Z,39.67
2022-08-06T11:33:48.297Z,40.14
2022-08-06T11:34:51.049Z,39.97
2022-08-06T11:35:52.915Z,39.54
2022-08-06T11:36:57.372Z,40.05
2022-08-06T11:38:03.930Z,39.05
2022-08-06T11:38:53.449Z,38.73
2022-08-06T11:39:49.288Z,38.93
2022-08-06T11:40:48.212Z,38.64
2022-08-06T11:41:55.414Z,38.83
2022-08-06T11:42:50.427Z,39.03
2022-08-06T11:43:58.256Z,38.83
2022-08-06T11:44:49.165Z,38.64
2022-08-06T11:46:20.086Z,38.73
2022-08-06T11:46:49.860Z,38.73
2022-08-06T11:47:48.134Z,39.03
2022-08-06T11:48:48.125Z,38.73
2022-08-06T11:49:48.129Z,38.54
2022-08-06T11:50:48.120Z,38.43
2022-08-06T11:51:48.095Z,38.32
2022-08-06T11:52:49.086Z,37.92
2022-08-06T11:53:53.090Z,37.62
2022-08-06T11:54:49.071Z,37.43
2022-08-06T11:55:48.071Z,37.32
2022-08-06T11:56:48.039Z,37.32
2022-08-06T11:57:49.094Z,37.72
2022-08-06T11:58:48.016Z,37.01
2022-08-06T11:59:48.017Z,36.91
2022-08-06T12:00:48.042Z,37.21
2022-08-06T12:01:48.060Z,36.51
2022-08-06T12:02:47.972Z,36.20
2022-08-06T12:03:48.966Z,37.19
2022-08-06T12:04:48.171Z,36.20
2022-08-06T12:05:57.062Z,36.02
2022-08-06T12:06:48.927Z,36.11
2022-08-06T12:07:51.465Z,36.41
2022-08-06T12:08:47.909Z,35.92
2022-08-06T12:09:48.681Z,36.11
2022-08-06T12:10:47.887Z,35.92
2022-08-06T12:11:48.920Z,36.22
2022-08-06T12:12:47.885Z,36.41
2022-08-06T12:13:57.494Z,37.21
2022-08-06T12:14:50.837Z,37.30
2022-08-06T12:15:52.591Z,37.21
2022-08-06T12:16:53.834Z,37.70
2022-08-06T12:18:19.023Z,37.72
2022-08-06T12:18:48.815Z,38.02
2022-08-06T12:20:02.742Z,37.70
2022-08-06T12:20:49.400Z,37.01
2022-08-06T12:21:49.344Z,36.81
2022-08-06T12:22:49.636Z,36.41
2022-08-06T12:23:56.879Z,36.00
2022-08-06T12:25:09.868Z,36.02
2022-08-06T12:25:48.729Z,35.71
2022-08-06T12:26:47.715Z,35.50
2022-08-06T12:27:50.842Z,35.31
2022-08-06T12:28:48.712Z,35.31
2022-08-06T12:29:47.688Z,35.09
2022-08-06T12:30:48.516Z,35.21
2022-08-06T12:31:50.068Z,35.31
2022-08-06T12:32:56.846Z,35.41
2022-08-06T12:33:48.652Z,34.91
2022-08-06T12:34:51.842Z,34.91
2022-08-06T12:35:48.618Z,34.91
2022-08-06T12:36:47.607Z,34.71
2022-08-06T12:37:51.107Z,34.71
2022-08-06T12:38:47.629Z,35.32
2022-08-06T12:39:48.077Z,35.42
2022-08-06T12:40:47.565Z,35.82
2022-08-06T12:41:47.618Z,35.03
2022-08-06T12:42:53.285Z,35.42
2022-08-06T12:43:57.064Z,35.32
2022-08-06T12:44:57.263Z,36.13
2022-08-06T12:46:06.432Z,35.83
2022-08-06T12:46:48.499Z,36.23
2022-08-06T12:48:03.370Z,37.04
2022-08-06T12:48:48.498Z,36.94
2022-08-06T12:49:47.505Z,36.94
2022-08-06T12:50:47.619Z,36.25
2022-08-06T12:51:48.691Z,35.95